Terminal Aerodrome Forecast
Issued by NWS

Current Version | Previous Version | Text Only | Print | Product List | Glossary On
Versions: 1 2 3 4 5 6 7 8 9 10 11 12 13 14 15
272
FTUS46 KSEW 171737
TAFOLM
TAF
KOLM 171737Z 1718/1818 20015G25KT P6SM -SHRA FEW006 BKN018 OVC030
      TEMPO 1718/1720 3SM RA BR BKN006
     FM172000 22012KT P6SM SCT030 BKN045
     FM180100 18005KT P6SM SCT050 BKN200
     FM181200 20005KT P6SM OVC050
     FM181500 18010KT P6SM -RA OVC025=

USA.gov is the U.S. government's official web portal to all federal, state and local government web resources and services.